Time;durP1;ratioP1;P1;durP2;ratioP2;P2;SDS_P1;SDS_P2;PMS_P1;PMS_P2;Temp;Humidity;BMP_temperature;BMP_pressure;BME280_temperature;BME280_humidity;BME280_pressure;Samples;Min_cycle;Max_cycle;Signal;HPM_P1;HPM_P2
2021/12/18 00:01:08;;;;;;;9.38;7.50;;;;;;;;;;4989317;28;20219;-88
2021/12/18 00:03:35;;;;;;;7.82;6.63;;;;;;;;;;4990490;28;20212;-88
2021/12/18 00:06:06;;;;;;;7.68;6.65;;;;;;;;;;4989652;28;20292;-88
2021/12/18 00:08:33;;;;;;;8.63;6.80;;;;;;;;;;4989481;28;20213;-88
2021/12/18 00:11:07;;;;;;;8.40;6.53;;;;;;;;;;4988463;28;20181;-88
2021/12/18 00:13:35;;;;;;;7.15;6.28;;;;;;;;;;4988273;28;20260;-88
2021/12/18 00:16:06;;;;;;;5.82;4.85;;;;;;;;;;4988739;28;20239;-88
2021/12/18 00:18:35;;;;;;;5.97;5.32;;;;;;;;;;4989266;28;20235;-88
2021/12/18 00:21:03;;;;;;;5.97;5.45;;;;;;;;;;4989667;28;20256;-89
2021/12/18 00:23:33;;;;;;;5.82;5.22;;;;;;;;;;4988662;28;20193;-89
2021/12/18 00:26:00;;;;;;;6.32;5.25;;;;;;;;;;4988590;28;20255;-89
2021/12/18 00:28:28;;;;;;;5.70;5.10;;;;;;;;;;4988441;28;20275;-89
2021/12/18 00:30:56;;;;;;;6.00;5.40;;;;;;;;;;4987751;28;20227;-89
2021/12/18 00:33:27;;;;;;;5.43;4.47;;;;;;;;;;4986887;28;20185;-88
2021/12/18 00:35:54;;;;;;;4.45;4.05;;;;;;;;;;4985983;28;20267;-89
2021/12/18 00:38:28;;;;;;;5.72;4.97;;;;;;;;;;4985525;28;20224;-89
2021/12/18 00:41:14;;;;;;;5.68;4.75;;;;;;;;;;4985479;28;20200;-89
2021/12/18 00:46:26;;;;;;;6.07;5.13;;;;;;;;;;4983715;28;20248;-88
2021/12/18 00:48:55;;;;;;;5.80;5.25;;;;;;;;;;4984193;28;20207;-89
2021/12/18 00:51:23;;;;;;;4.13;3.70;;;;;;;;;;4983141;28;20201;-89
2021/12/18 00:53:53;;;;;;;5.30;4.82;;;;;;;;;;4982201;28;20212;-89
2021/12/18 00:56:24;;;;;;;4.65;4.22;;;;;;;;;;4981308;28;20244;-88
2021/12/18 00:58:52;;;;;;;5.32;4.82;;;;;;;;;;4985375;28;20256;-88
2021/12/18 01:01:21;;;;;;;6.72;6.03;;;;;;;;;;4986674;28;20276;-88
2021/12/18 01:03:51;;;;;;;4.47;3.95;;;;;;;;;;4985842;28;20204;-88
2021/12/18 01:06:21;;;;;;;3.47;3.17;;;;;;;;;;4983870;28;20224;-88
2021/12/18 01:08:54;;;;;;;3.03;2.80;;;;;;;;;;4982181;28;20197;-88
2021/12/18 01:11:33;;;;;;;5.32;3.65;;;;;;;;;;4981206;28;20654;-88
2021/12/18 01:22:40;;;;;;;5.72;4.85;;;;;;;;;;4958021;28;20209;-89
2021/12/18 01:22:48;;;;;;;4.88;3.90;;;;;;;;;;4961744;29;20195;-88
2021/12/18 01:25:20;;;;;;;3.33;2.78;;;;;;;;;;4945277;29;20232;-88
2021/12/18 01:27:51;;;;;;;5.22;4.72;;;;;;;;;;4962948;28;20306;-88
2021/12/18 01:30:19;;;;;;;4.32;3.92;;;;;;;;;;4961877;29;20227;-89
2021/12/18 01:32:47;;;;;;;5.43;4.28;;;;;;;;;;4961600;28;20204;-88
2021/12/18 01:35:15;;;;;;;6.57;5.00;;;;;;;;;;4961757;28;20241;-88
2021/12/18 01:37:50;;;;;;;4.35;3.50;;;;;;;;;;4961371;29;20201;-88
2021/12/18 01:40:22;;;;;;;3.50;3.20;;;;;;;;;;4959531;28;20220;-88
2021/12/18 01:46:08;;;;;;;4.20;3.80;;;;;;;;;;4959522;28;20277;-88
2021/12/18 01:51:33;;;;;;;4.85;4.18;;;;;;;;;;4962579;28;20204;-88
2021/12/18 01:54:01;;;;;;;5.22;4.72;;;;;;;;;;4962808;29;20208;-89
2021/12/18 01:56:29;;;;;;;4.65;3.95;;;;;;;;;;4963586;28;20229;-88
2021/12/18 01:59:00;;;;;;;3.70;3.28;;;;;;;;;;4963854;28;20258;-89
2021/12/18 02:01:28;;;;;;;4.22;3.80;;;;;;;;;;4965501;28;20296;-88
2021/12/18 02:03:57;;;;;;;6.05;4.65;;;;;;;;;;4965004;28;20208;-87
2021/12/18 02:06:25;;;;;;;4.95;4.40;;;;;;;;;;4965062;28;20350;-88
2021/12/18 02:08:54;;;;;;;4.40;3.95;;;;;;;;;;4964670;28;20277;-86
2021/12/18 02:11:32;;;;;;;5.43;4.63;;;;;;;;;;4961701;28;20205;-88
2021/12/18 02:14:33;;;;;;;4.38;3.78;;;;;;;;;;4962363;28;20279;-88
2021/12/18 02:20:21;;;;;;;3.63;3.33;;;;;;;;;;4961558;29;20240;-88
2021/12/18 02:22:51;;;;;;;2.50;2.30;;;;;;;;;;4961217;28;20611;-88
2021/12/18 02:25:22;;;;;;;4.00;3.67;;;;;;;;;;4962602;29;20257;-87
2021/12/18 02:27:51;;;;;;;4.90;3.78;;;;;;;;;;4962069;28;20269;-88
2021/12/18 02:30:23;;;;;;;3.42;2.75;;;;;;;;;;4962432;29;20233;-87
2021/12/18 02:32:52;;;;;;;3.80;2.67;;;;;;;;;;4961441;29;20201;-88
2021/12/18 02:35:29;;;;;;;2.97;2.78;;;;;;;;;;4963376;29;20252;-88
2021/12/18 02:38:16;;;;;;;3.58;3.28;;;;;;;;;;4960346;29;20196;-88
2021/12/18 02:43:26;;;;;;;3.10;2.80;;;;;;;;;;4958023;28;20252;-88
2021/12/18 02:46:06;;;;;;;2.92;2.65;;;;;;;;;;4961820;29;20228;-88
2021/12/18 02:48:35;;;;;;;3.50;3.20;;;;;;;;;;4961520;28;20221;-88
2021/12/18 02:51:09;;;;;;;3.45;2.65;;;;;;;;;;4961558;29;20216;-87
2021/12/18 02:53:39;;;;;;;2.38;2.17;;;;;;;;;;4962463;29;20182;-88
2021/12/18 02:56:10;;;;;;;2.35;2.15;;;;;;;;;;4942955;29;20229;-88
2021/12/18 02:58:38;;;;;;;2.65;2.40;;;;;;;;;;4941707;29;20711;-88
2021/12/18 03:01:08;;;;;;;2.50;2.30;;;;;;;;;;4942838;29;20265;-87
2021/12/18 03:03:39;;;;;;;2.95;2.70;;;;;;;;;;4942200;29;20202;-88
2021/12/18 03:06:21;;;;;;;2.20;2.00;;;;;;;;;;4943037;29;20217;-88
2021/12/18 03:08:58;;;;;;;4.65;2.20;;;;;;;;;;4943572;29;20213;-89
2021/12/18 03:25:22;;;;;;;3.30;2.95;;;;;;;;;;4965845;28;20807;-89
2021/12/18 03:27:52;;;;;;;2.90;2.70;;;;;;;;;;4966556;29;20644;-88
2021/12/18 03:30:21;;;;;;;3.65;3.35;;;;;;;;;;4976599;28;20208;-88
2021/12/18 03:32:49;;;;;;;3.85;3.55;;;;;;;;;;4986519;28;20235;-88
2021/12/18 03:35:17;;;;;;;3.53;3.25;;;;;;;;;;4985447;28;20224;-88
2021/12/18 03:37:47;;;;;;;3.35;2.80;;;;;;;;;;4986005;28;20645;-88
2021/12/18 03:40:19;;;;;;;3.00;2.80;;;;;;;;;;4985802;28;20240;-88
2021/12/18 03:42:49;;;;;;;3.20;2.90;;;;;;;;;;4984879;28;20731;-88
2021/12/18 03:45:18;;;;;;;3.42;2.83;;;;;;;;;;4983414;28;20224;-88
2021/12/18 03:47:48;;;;;;;3.50;3.20;;;;;;;;;;4985073;28;20204;-89
2021/12/18 03:50:16;;;;;;;3.53;3.22;;;;;;;;;;4984684;28;20216;-87
2021/12/18 03:52:45;;;;;;;2.70;2.50;;;;;;;;;;4983396;28;20248;-88
2021/12/18 03:55:13;;;;;;;3.83;3.42;;;;;;;;;;4985143;28;20220;-88
2021/12/18 03:57:42;;;;;;;3.20;2.60;;;;;;;;;;4984790;28;20197;-87
2021/12/18 04:00:14;;;;;;;3.30;2.85;;;;;;;;;;4983479;28;20398;-86
2021/12/18 04:02:42;;;;;;;3.72;3.38;;;;;;;;;;4982760;28;20207;-88
2021/12/18 04:05:11;;;;;;;3.58;2.72;;;;;;;;;;4983245;28;20263;-88
2021/12/18 04:07:42;;;;;;;2.75;2.55;;;;;;;;;;4983882;28;20667;-88
2021/12/18 04:10:20;;;;;;;2.85;2.65;;;;;;;;;;4984537;28;20209;-88
2021/12/18 04:12:50;;;;;;;2.90;2.70;;;;;;;;;;4984825;28;20232;-89
2021/12/18 04:15:18;;;;;;;2.70;2.50;;;;;;;;;;4985155;28;20259;-88
2021/12/18 04:17:49;;;;;;;3.78;3.05;;;;;;;;;;4984142;28;20211;-89
2021/12/18 04:20:17;;;;;;;3.33;2.78;;;;;;;;;;4982161;28;20230;-89
2021/12/18 04:22:48;;;;;;;3.38;3.08;;;;;;;;;;4983585;28;20219;-88
2021/12/18 04:25:23;;;;;;;2.58;2.38;;;;;;;;;;4981984;28;20311;-89
2021/12/18 04:27:51;;;;;;;3.38;2.90;;;;;;;;;;4983120;28;20285;-88
2021/12/18 04:30:21;;;;;;;3.20;2.83;;;;;;;;;;4982428;28;20192;-88
2021/12/18 04:32:49;;;;;;;2.47;2.28;;;;;;;;;;4982412;28;20216;-88
2021/12/18 04:35:17;;;;;;;3.30;3.00;;;;;;;;;;4982029;28;20224;-88
2021/12/18 04:37:47;;;;;;;3.15;2.85;;;;;;;;;;4982612;28;20231;-88
2021/12/18 04:40:17;;;;;;;2.63;2.42;;;;;;;;;;4983751;28;20316;-88
2021/12/18 04:42:46;;;;;;;3.92;2.70;;;;;;;;;;4982881;28;20224;-88
2021/12/18 04:45:16;;;;;;;3.10;2.80;;;;;;;;;;4982814;28;20243;-88
2021/12/18 04:47:44;;;;;;;3.05;2.72;;;;;;;;;;4982459;28;20299;-89
2021/12/18 04:50:12;;;;;;;1.98;1.85;;;;;;;;;;4982762;28;20241;-88
2021/12/18 04:52:39;;;;;;;2.55;2.33;;;;;;;;;;4982343;28;20215;-88
2021/12/18 04:55:09;;;;;;;3.17;2.88;;;;;;;;;;4983319;28;20224;-88
2021/12/18 04:57:36;;;;;;;3.33;2.30;;;;;;;;;;4983591;28;20192;-88
2021/12/18 05:00:13;;;;;;;2.55;2.33;;;;;;;;;;4982856;28;20211;-88
2021/12/18 05:02:43;;;;;;;2.13;1.95;;;;;;;;;;4982522;28;20203;-88
2021/12/18 05:05:14;;;;;;;2.03;1.92;;;;;;;;;;4982761;28;20225;-88
2021/12/18 05:07:42;;;;;;;2.33;2.17;;;;;;;;;;4983908;28;20235;-88
2021/12/18 05:10:13;;;;;;;2.60;2.40;;;;;;;;;;4984436;28;20200;-88
2021/12/18 05:12:41;;;;;;;2.67;2.42;;;;;;;;;;4984276;28;20184;-88
2021/12/18 07:10:19;;;;;;;2.50;2.17;;;;;;;;;;5397881;23;20254;-85
2021/12/18 07:12:47;;;;;;;3.05;2.85;;;;;;;;;;5005676;28;20220;-85
2021/12/18 07:15:15;;;;;;;3.03;2.83;;;;;;;;;;5018589;28;20215;-84
2021/12/18 07:17:43;;;;;;;2.92;2.72;;;;;;;;;;5015655;28;20191;-84
2021/12/18 07:20:12;;;;;;;2.92;2.72;;;;;;;;;;5015412;28;20192;-85
2021/12/18 07:22:40;;;;;;;3.05;2.67;;;;;;;;;;5015044;28;20709;-84
2021/12/18 07:25:09;;;;;;;3.40;3.10;;;;;;;;;;5013177;28;20219;-82
2021/12/18 07:27:39;;;;;;;3.20;2.90;;;;;;;;;;5015641;28;20199;-85
2021/12/18 07:30:10;;;;;;;3.60;3.30;;;;;;;;;;5014998;28;20646;-86
2021/12/18 07:32:38;;;;;;;3.22;2.92;;;;;;;;;;4995393;28;20180;-83
2021/12/18 07:35:07;;;;;;;2.55;2.35;;;;;;;;;;4996334;28;20219;-84
2021/12/18 07:37:35;;;;;;;3.60;2.78;;;;;;;;;;4997592;28;20202;-86
2021/12/18 07:40:04;;;;;;;3.08;2.78;;;;;;;;;;5001195;28;20210;-86
2021/12/18 07:42:32;;;;;;;2.92;2.72;;;;;;;;;;4997368;28;20233;-85
2021/12/18 07:45:04;;;;;;;2.97;2.65;;;;;;;;;;4994566;28;20250;-85
2021/12/18 07:47:32;;;;;;;2.70;2.50;;;;;;;;;;4994127;28;20275;-85
2021/12/18 07:50:02;;;;;;;3.10;2.80;;;;;;;;;;4997552;28;20210;-85
2021/12/18 07:52:29;;;;;;;2.78;2.58;;;;;;;;;;5005829;28;20184;-85
2021/12/18 07:54:57;;;;;;;3.03;2.70;;;;;;;;;;4993891;28;20219;-86
2021/12/18 07:57:24;;;;;;;3.53;3.22;;;;;;;;;;5000340;28;20211;-85
2021/12/18 07:59:52;;;;;;;3.30;2.47;;;;;;;;;;5012985;28;20211;-85
2021/12/18 08:02:21;;;;;;;2.88;2.67;;;;;;;;;;5010627;28;20227;-85
2021/12/18 08:04:48;;;;;;;2.47;2.28;;;;;;;;;;5012662;28;20226;-86
2021/12/18 08:07:17;;;;;;;2.75;2.50;;;;;;;;;;5012812;28;20199;-84
2021/12/18 08:09:44;;;;;;;2.50;2.30;;;;;;;;;;5013943;28;20231;-84
2021/12/18 08:12:11;;;;;;;2.28;2.08;;;;;;;;;;5005712;28;20250;-84
2021/12/18 08:14:39;;;;;;;2.85;2.65;;;;;;;;;;5002810;28;20211;-86
2021/12/18 08:17:07;;;;;;;2.65;2.30;;;;;;;;;;5006998;28;20206;-84
2021/12/18 08:19:35;;;;;;;1.90;1.80;;;;;;;;;;5012090;28;20255;-85
2021/12/18 08:22:03;;;;;;;2.28;1.98;;;;;;;;;;5015155;28;20207;-85
2021/12/18 08:24:32;;;;;;;2.10;1.90;;;;;;;;;;5005603;28;20206;-86
2021/12/18 08:27:00;;;;;;;2.58;2.38;;;;;;;;;;5000072;28;20199;-85
2021/12/18 08:29:27;;;;;;;2.10;1.90;;;;;;;;;;4995522;28;20208;-84
2021/12/18 08:31:55;;;;;;;2.00;1.80;;;;;;;;;;4993904;28;20192;-85
2021/12/18 08:34:24;;;;;;;2.30;2.08;;;;;;;;;;4999548;28;20223;-86
2021/12/18 08:36:54;;;;;;;1.75;1.63;;;;;;;;;;4995099;28;20721;-85
2021/12/18 08:39:21;;;;;;;1.77;1.67;;;;;;;;;;4994820;28;20571;-85
2021/12/18 08:41:49;;;;;;;2.75;2.50;;;;;;;;;;4994239;28;20204;-86
2021/12/18 08:44:16;;;;;;;2.13;1.95;;;;;;;;;;4995680;28;20194;-85
2021/12/18 08:46:44;;;;;;;2.25;2.15;;;;;;;;;;4994443;28;20211;-85
2021/12/18 08:49:12;;;;;;;1.52;1.38;;;;;;;;;;4994456;28;20208;-85
2021/12/18 08:51:40;;;;;;;2.50;2.10;;;;;;;;;;4994998;28;20566;-84
2021/12/18 08:54:09;;;;;;;1.70;1.60;;;;;;;;;;4994537;28;20188;-85
2021/12/18 08:56:36;;;;;;;1.52;1.42;;;;;;;;;;4994391;28;20322;-87
2021/12/18 08:59:04;;;;;;;1.50;1.40;;;;;;;;;;4994569;28;20203;-86
2021/12/18 09:01:32;;;;;;;2.63;1.50;;;;;;;;;;4994286;28;20187;-85
2021/12/18 09:04:00;;;;;;;1.00;1.00;;;;;;;;;;4995118;28;20247;-86
2021/12/18 09:06:30;;;;;;;1.42;1.33;;;;;;;;;;5006799;28;20220;-85
2021/12/18 09:08:57;;;;;;;0.90;0.90;;;;;;;;;;5006132;28;20295;-86
2021/12/18 09:11:26;;;;;;;1.08;1.00;;;;;;;;;;5003884;28;20238;-87
2021/12/18 09:13:56;;;;;;;1.02;1.02;;;;;;;;;;4998397;28;20208;-87
2021/12/18 09:16:23;;;;;;;1.63;0.98;;;;;;;;;;5013038;28;20227;-87
2021/12/18 09:18:52;;;;;;;0.98;0.98;;;;;;;;;;5025216;28;20657;-87
2021/12/18 09:21:22;;;;;;;1.52;1.45;;;;;;;;;;5021541;28;20226;-85
2021/12/18 09:23:50;;;;;;;1.20;1.10;;;;;;;;;;5015442;28;20222;-86
2021/12/18 09:26:18;;;;;;;0.88;0.88;;;;;;;;;;5005871;28;20247;-85
2021/12/18 09:28:49;;;;;;;0.73;0.73;;;;;;;;;;4998494;28;20200;-87
2021/12/18 09:31:34;;;;;;;0.90;0.90;;;;;;;;;;4996855;28;20270;-86
2021/12/18 09:34:04;;;;;;;1.60;1.23;;;;;;;;;;4998294;28;20192;-87
2021/12/18 09:36:32;;;;;;;1.00;1.00;;;;;;;;;;4997571;28;20591;-87
2021/12/18 09:39:01;;;;;;;1.00;1.00;;;;;;;;;;5013270;28;20195;-86
2021/12/18 09:41:29;;;;;;;0.80;0.80;;;;;;;;;;5016135;28;20191;-86
2021/12/18 09:43:58;;;;;;;1.00;1.00;;;;;;;;;;5018666;28;20270;-85
2021/12/18 09:46:25;;;;;;;1.02;1.00;;;;;;;;;;5012646;28;20223;-85
2021/12/18 09:48:53;;;;;;;1.50;1.40;;;;;;;;;;5014467;28;20210;-85
2021/12/18 09:51:25;;;;;;;1.30;1.20;;;;;;;;;;5016048;28;20188;-85
2021/12/18 09:53:54;;;;;;;1.00;1.00;;;;;;;;;;5012401;28;20195;-87
2021/12/18 09:56:42;;;;;;;1.20;1.10;;;;;;;;;;4999431;28;20682;-89
2021/12/18 09:59:12;;;;;;;1.10;1.10;;;;;;;;;;4994318;28;20265;-87
2021/12/18 10:01:40;;;;;;;1.65;1.33;;;;;;;;;;4992019;28;20581;-88
2021/12/18 10:04:27;;;;;;;1.92;1.40;;;;;;;;;;4991284;28;20234;-87
2021/12/18 10:06:56;;;;;;;0.70;0.70;;;;;;;;;;4991516;28;20278;-88
2021/12/18 10:09:37;;;;;;;1.30;1.20;;;;;;;;;;4991725;28;20436;-88
2021/12/18 10:12:17;;;;;;;0.90;0.90;;;;;;;;;;4992213;28;20204;-87
2021/12/18 10:14:50;;;;;;;2.75;1.40;;;;;;;;;;4992710;28;20311;-88
2021/12/18 10:17:28;;;;;;;1.77;1.67;;;;;;;;;;4993901;28;20192;-87
2021/12/18 10:20:17;;;;;;;1.88;1.77;;;;;;;;;;4991606;28;20227;-87
2021/12/18 10:22:48;;;;;;;1.30;1.20;;;;;;;;;;4991037;28;20646;-89
2021/12/18 10:25:22;;;;;;;0.85;0.85;;;;;;;;;;4991731;28;20578;-87
2021/12/18 10:28:00;;;;;;;1.40;1.30;;;;;;;;;;4999918;28;20195;-86
2021/12/18 10:30:43;;;;;;;1.50;1.40;;;;;;;;;;4990459;28;20694;-88
2021/12/18 10:33:14;;;;;;;1.50;1.40;;;;;;;;;;4991420;28;20196;-88
2021/12/18 10:35:46;;;;;;;1.60;1.50;;;;;;;;;;5002056;28;20222;-89
2021/12/18 10:38:39;;;;;;;1.88;1.55;;;;;;;;;;5001111;28;20211;-89
2021/12/18 10:41:23;;;;;;;1.65;1.55;;;;;;;;;;4989240;28;20992;-88
2021/12/18 10:44:02;;;;;;;1.17;1.17;;;;;;;;;;5002246;28;20266;-87
2021/12/18 10:46:41;;;;;;;1.20;1.10;;;;;;;;;;4971461;28;20602;-86
2021/12/18 10:49:23;;;;;;;1.67;1.40;;;;;;;;;;4990192;28;20196;-87
2021/12/18 10:51:59;;;;;;;1.50;1.40;;;;;;;;;;4972119;28;20260;-87
2021/12/18 10:54:38;;;;;;;1.50;1.40;;;;;;;;;;4989970;28;20188;-90
2021/12/18 10:57:21;;;;;;;2.08;1.88;;;;;;;;;;4993272;28;20211;-88
2021/12/18 10:59:58;;;;;;;1.27;1.17;;;;;;;;;;4995999;28;20279;-88
2021/12/18 11:02:29;;;;;;;1.92;1.77;;;;;;;;;;4998386;28;20626;-88
2021/12/18 11:05:34;;;;;;;2.28;2.08;;;;;;;;;;4991551;28;20250;-88
2021/12/18 11:08:12;;;;;;;2.35;1.70;;;;;;;;;;4996460;28;20199;-88
2021/12/18 11:14:08;;;;;;;1.40;1.30;;;;;;;;;;4963246;28;20670;-88
2021/12/18 11:16:36;;;;;;;1.70;1.60;;;;;;;;;;4992235;28;20222;-88
2021/12/18 11:19:18;;;;;;;1.90;1.70;;;;;;;;;;4991539;28;20188;-88
2021/12/18 11:21:57;;;;;;;2.75;1.50;;;;;;;;;;4990961;28;20200;-88
2021/12/18 11:24:34;;;;;;;1.65;1.55;;;;;;;;;;4980361;28;20220;-88
2021/12/18 11:27:16;;;;;;;2.17;1.63;;;;;;;;;;4993003;28;20203;-88
2021/12/18 11:30:06;;;;;;;1.95;1.70;;;;;;;;;;4994653;28;20252;-88
2021/12/18 11:32:44;;;;;;;2.42;1.55;;;;;;;;;;4975048;28;20284;-88
2021/12/18 11:35:16;;;;;;;1.30;1.20;;;;;;;;;;4993285;28;20218;-87
2021/12/18 11:37:48;;;;;;;1.88;1.75;;;;;;;;;;4996838;28;20200;-88
2021/12/18 11:40:31;;;;;;;2.03;1.60;;;;;;;;;;4992417;28;20546;-88
2021/12/18 11:43:00;;;;;;;1.50;1.40;;;;;;;;;;4999591;28;20192;-88
2021/12/18 11:45:33;;;;;;;1.50;1.40;;;;;;;;;;4995043;28;20238;-88
2021/12/18 11:48:25;;;;;;;1.65;1.50;;;;;;;;;;4995308;28;20210;-87
2021/12/18 11:50:54;;;;;;;1.35;1.25;;;;;;;;;;4996613;28;20191;-87
2021/12/18 11:53:36;;;;;;;1.35;1.30;;;;;;;;;;4995057;28;20543;-87
2021/12/18 11:56:11;;;;;;;1.40;1.30;;;;;;;;;;5002124;28;20219;-87
2021/12/18 11:58:58;;;;;;;2.03;1.92;;;;;;;;;;5007452;28;20206;-88
2021/12/18 12:01:30;;;;;;;2.17;1.98;;;;;;;;;;4974127;28;20340;-87
2021/12/18 12:04:01;;;;;;;2.13;1.83;;;;;;;;;;4982846;28;20456;-87
2021/12/18 12:06:48;;;;;;;2.10;1.90;;;;;;;;;;4979519;28;20223;-88
2021/12/18 12:09:25;;;;;;;1.70;1.60;;;;;;;;;;4994228;28;20232;-87
2021/12/18 12:11:58;;;;;;;1.80;1.70;;;;;;;;;;5007701;28;20206;-86
2021/12/18 12:14:28;;;;;;;2.30;1.70;;;;;;;;;;5006415;28;20196;-87
2021/12/18 12:17:25;;;;;;;1.60;1.50;;;;;;;;;;5007184;28;20219;-87
2021/12/18 12:20:02;;;;;;;2.15;2.05;;;;;;;;;;5006089;28;20562;-88
2021/12/18 12:22:48;;;;;;;1.38;1.27;;;;;;;;;;5006206;28;20206;-88
2021/12/18 12:25:47;;;;;;;1.85;1.75;;;;;;;;;;5004460;28;20563;-88
2021/12/18 12:28:19;;;;;;;1.60;1.50;;;;;;;;;;5003240;28;20258;-87
2021/12/18 12:30:52;;;;;;;1.67;1.58;;;;;;;;;;5011034;28;20198;-86
2021/12/18 12:33:28;;;;;;;1.63;1.48;;;;;;;;;;5015318;23;21029;-86
2021/12/18 12:36:10;;;;;;;1.88;1.70;;;;;;;;;;4988681;28;21021;-83
2021/12/18 12:38:43;;;;;;;1.70;1.60;;;;;;;;;;5005326;28;20199;-82
2021/12/18 12:41:36;;;;;;;1.27;1.20;;;;;;;;;;5004385;28;20188;-83
2021/12/18 12:44:15;;;;;;;2.65;1.85;;;;;;;;;;4995982;28;20274;-82
2021/12/18 12:46:44;;;;;;;1.80;1.65;;;;;;;;;;5000818;28;20192;-82
2021/12/18 12:49:16;;;;;;;2.10;1.90;;;;;;;;;;5005595;28;20575;-84
2021/12/18 12:52:10;;;;;;;1.73;1.63;;;;;;;;;;4992331;28;20285;-81
2021/12/18 12:54:52;;;;;;;1.65;1.55;;;;;;;;;;4996668;28;20215;-82
2021/12/18 12:57:49;;;;;;;1.73;1.63;;;;;;;;;;4994660;28;20202;-82
2021/12/18 13:00:51;;;;;;;2.17;1.90;;;;;;;;;;4975156;28;20197;-82
2021/12/18 13:03:37;;;;;;;2.78;1.92;;;;;;;;;;5004914;28;20218;-86
2021/12/18 13:06:17;;;;;;;2.05;1.92;;;;;;;;;;4998269;28;20219;-82
2021/12/18 13:08:47;;;;;;;1.52;1.42;;;;;;;;;;4990645;28;20188;-83
2021/12/18 13:11:26;;;;;;;2.08;1.88;;;;;;;;;;5006293;28;20242;-84
2021/12/18 13:13:55;;;;;;;2.00;1.83;;;;;;;;;;4998777;28;20219;-83
2021/12/18 13:16:25;;;;;;;1.55;1.45;;;;;;;;;;5005150;28;20210;-83
2021/12/18 13:18:54;;;;;;;2.25;2.05;;;;;;;;;;5007867;28;20202;-83
2021/12/18 13:21:24;;;;;;;2.45;2.25;;;;;;;;;;5011624;28;20198;-83
2021/12/18 13:23:59;;;;;;;2.13;1.90;;;;;;;;;;5003468;28;20227;-83
2021/12/18 13:26:32;;;;;;;1.63;1.52;;;;;;;;;;4993017;28;20277;-83
2021/12/18 13:29:07;;;;;;;1.60;1.50;;;;;;;;;;4981187;28;20749;-84
2021/12/18 13:31:39;;;;;;;2.15;2.00;;;;;;;;;;4999631;28;20191;-83
2021/12/18 13:34:11;;;;;;;1.70;1.60;;;;;;;;;;5008721;28;20227;-85
2021/12/18 13:36:48;;;;;;;1.92;1.63;;;;;;;;;;5002899;28;20657;-83
2021/12/18 13:39:18;;;;;;;1.80;1.70;;;;;;;;;;5007693;28;20199;-84
2021/12/18 13:42:12;;;;;;;1.80;1.70;;;;;;;;;;4991456;28;20185;-86
2021/12/18 13:44:57;;;;;;;2.42;2.22;;;;;;;;;;4997520;28;20216;-83
2021/12/18 13:47:29;;;;;;;2.28;2.00;;;;;;;;;;4999496;28;20700;-82
2021/12/18 13:50:11;;;;;;;2.42;2.22;;;;;;;;;;4993107;28;20210;-83
2021/12/18 13:52:44;;;;;;;1.95;1.83;;;;;;;;;;5010162;28;20207;-82
2021/12/18 13:55:33;;;;;;;2.28;2.08;;;;;;;;;;4973983;28;20227;-82
2021/12/18 13:58:13;;;;;;;1.50;1.40;;;;;;;;;;4977689;28;20196;-83
2021/12/18 14:00:56;;;;;;;2.50;2.30;;;;;;;;;;4995942;28;20722;-83
2021/12/18 14:03:26;;;;;;;3.45;2.40;;;;;;;;;;4997087;28;20218;-83
2021/12/18 14:05:56;;;;;;;2.10;1.90;;;;;;;;;;5012685;28;20238;-82
2021/12/18 14:08:23;;;;;;;2.78;2.45;;;;;;;;;;5013391;28;20191;-81
2021/12/18 14:10:52;;;;;;;2.00;1.80;;;;;;;;;;5001429;28;20566;-82
2021/12/18 14:13:21;;;;;;;2.40;2.10;;;;;;;;;;5001846;28;20223;-84
2021/12/18 14:15:49;;;;;;;2.20;1.98;;;;;;;;;;4982519;28;20187;-83
2021/12/18 14:18:38;;;;;;;2.85;2.00;;;;;;;;;;5002494;28;20198;-82
2021/12/18 14:21:06;;;;;;;2.58;2.17;;;;;;;;;;4978953;28;20200;-81
2021/12/18 14:23:38;;;;;;;2.60;2.40;;;;;;;;;;4991167;28;20228;-82
2021/12/18 14:26:21;;;;;;;1.70;1.60;;;;;;;;;;4991876;28;20294;-84
2021/12/18 14:28:52;;;;;;;2.20;2.00;;;;;;;;;;4994349;28;20250;-84
2021/12/18 14:31:30;;;;;;;2.13;1.98;;;;;;;;;;4995364;28;20195;-84
2021/12/18 14:34:00;;;;;;;2.03;1.90;;;;;;;;;;4980095;28;20234;-84
2021/12/18 14:37:03;;;;;;;2.30;2.10;;;;;;;;;;4975851;28;20189;-83
2021/12/18 14:39:49;;;;;;;1.48;1.38;;;;;;;;;;4937135;28;20204;-84
2021/12/18 14:42:26;;;;;;;1.85;1.75;;;;;;;;;;4976071;28;20204;-84
2021/12/18 14:44:59;;;;;;;2.85;2.53;;;;;;;;;;4975815;28;20220;-83
2021/12/18 14:47:32;;;;;;;2.90;2.70;;;;;;;;;;4974904;28;20213;-84
2021/12/18 14:50:17;;;;;;;2.75;2.55;;;;;;;;;;4994009;28;20196;-83
2021/12/18 14:53:09;;;;;;;2.67;2.47;;;;;;;;;;4995436;28;20574;-84
2021/12/18 14:55:47;;;;;;;1.83;1.60;;;;;;;;;;4987452;28;20570;-84
2021/12/18 14:58:18;;;;;;;2.38;2.17;;;;;;;;;;4995189;28;20203;-84
2021/12/18 15:00:51;;;;;;;2.30;2.10;;;;;;;;;;4991797;28;20531;-84
2021/12/18 15:03:23;;;;;;;2.63;2.45;;;;;;;;;;4982624;28;20224;-85
2021/12/18 15:06:06;;;;;;;2.80;2.60;;;;;;;;;;4975623;28;20209;-84
2021/12/18 15:08:39;;;;;;;1.88;1.77;;;;;;;;;;4982998;28;20188;-82
2021/12/18 15:11:17;;;;;;;2.40;2.20;;;;;;;;;;4990456;28;20661;-86
2021/12/18 15:13:50;;;;;;;1.80;1.70;;;;;;;;;;4979661;28;20238;-87
2021/12/18 15:16:33;;;;;;;1.90;1.80;;;;;;;;;;4976327;28;20203;-87
2021/12/18 15:19:04;;;;;;;1.80;1.70;;;;;;;;;;4976346;28;20193;-86
2021/12/18 15:21:34;;;;;;;1.85;1.75;;;;;;;;;;4976829;28;20204;-87
2021/12/18 15:24:02;;;;;;;2.35;2.05;;;;;;;;;;4977957;28;20267;-86
2021/12/18 15:26:31;;;;;;;2.20;2.00;;;;;;;;;;4978486;28;20224;-87
2021/12/18 15:29:00;;;;;;;1.92;1.83;;;;;;;;;;4979204;28;20181;-86
2021/12/18 15:31:29;;;;;;;1.83;1.73;;;;;;;;;;4978096;28;20201;-86
2021/12/18 15:33:56;;;;;;;2.38;1.85;;;;;;;;;;4977386;28;20450;-85
2021/12/18 15:36:24;;;;;;;2.88;1.83;;;;;;;;;;4977541;28;20205;-87
2021/12/18 15:38:52;;;;;;;1.73;1.63;;;;;;;;;;4978741;28;20208;-86
2021/12/18 15:41:22;;;;;;;2.42;2.22;;;;;;;;;;4978873;28;20629;-86
2021/12/18 15:43:50;;;;;;;1.80;1.70;;;;;;;;;;4978795;28;20299;-87
2021/12/18 15:46:17;;;;;;;1.75;1.65;;;;;;;;;;4978611;28;20220;-86
2021/12/18 15:48:46;;;;;;;1.60;1.50;;;;;;;;;;4978349;28;20216;-85
2021/12/18 15:51:15;;;;;;;2.97;2.20;;;;;;;;;;4979136;28;20205;-85
2021/12/18 15:53:43;;;;;;;2.05;1.95;;;;;;;;;;4978752;28;20224;-87
2021/12/18 15:56:12;;;;;;;1.92;1.83;;;;;;;;;;4978944;28;20659;-86
2021/12/18 15:58:39;;;;;;;3.30;3.00;;;;;;;;;;4978538;28;20201;-85
2021/12/18 16:01:08;;;;;;;3.70;3.40;;;;;;;;;;4977851;28;20201;-87
2021/12/18 16:03:35;;;;;;;2.92;2.65;;;;;;;;;;4977978;28;20246;-85
2021/12/18 16:06:05;;;;;;;2.58;2.38;;;;;;;;;;4977566;28;20211;-87
2021/12/18 16:08:33;;;;;;;3.92;3.30;;;;;;;;;;4976799;28;20741;-87
2021/12/18 16:11:00;;;;;;;3.13;2.92;;;;;;;;;;4977593;28;20204;-86
2021/12/18 16:13:27;;;;;;;3.47;3.17;;;;;;;;;;4977529;28;20243;-85
2021/12/18 16:15:55;;;;;;;3.08;2.78;;;;;;;;;;4977187;28;20204;-87
2021/12/18 16:18:22;;;;;;;2.60;2.40;;;;;;;;;;4976592;28;20204;-87
2021/12/18 16:20:50;;;;;;;2.40;2.20;;;;;;;;;;4976800;28;20212;-86
2021/12/18 16:23:18;;;;;;;2.75;2.55;;;;;;;;;;4976528;28;20220;-87
2021/12/18 16:25:49;;;;;;;2.35;2.15;;;;;;;;;;4976158;28;20205;-86
2021/12/18 16:28:17;;;;;;;2.38;2.17;;;;;;;;;;4976241;28;20595;-87
2021/12/18 16:30:44;;;;;;;2.45;2.28;;;;;;;;;;4976611;28;20292;-87
2021/12/18 16:33:12;;;;;;;2.65;2.45;;;;;;;;;;4976058;28;20702;-87
2021/12/18 16:35:39;;;;;;;2.33;2.20;;;;;;;;;;4976388;28;20200;-87
2021/12/18 16:38:25;;;;;;;2.13;2.03;;;;;;;;;;4976283;28;20207;-87
2021/12/18 16:40:55;;;;;;;2.53;2.33;;;;;;;;;;4977057;28;20212;-86
2021/12/18 16:43:23;;;;;;;2.60;2.40;;;;;;;;;;4977092;28;20271;-87
2021/12/18 16:45:52;;;;;;;2.55;2.35;;;;;;;;;;4976093;28;20678;-87
2021/12/18 16:48:20;;;;;;;2.90;2.70;;;;;;;;;;4976345;28;20235;-88
2021/12/18 16:50:49;;;;;;;3.17;2.97;;;;;;;;;;4976068;28;20208;-88
2021/12/18 16:53:17;;;;;;;3.08;2.75;;;;;;;;;;4975884;28;20224;-87
2021/12/18 16:55:45;;;;;;;2.63;2.42;;;;;;;;;;4975726;28;20205;-87
2021/12/18 16:58:14;;;;;;;2.97;2.63;;;;;;;;;;4975798;28;20201;-88
2021/12/18 17:00:42;;;;;;;3.08;2.80;;;;;;;;;;4975765;28;20209;-87
2021/12/18 17:03:09;;;;;;;2.80;2.60;;;;;;;;;;4975588;28;20208;-88
2021/12/18 17:05:41;;;;;;;3.30;3.00;;;;;;;;;;4975525;28;20208;-86
2021/12/18 17:08:10;;;;;;;3.83;3.42;;;;;;;;;;4975573;28;20224;-87
2021/12/18 17:10:39;;;;;;;3.10;2.80;;;;;;;;;;4975590;28;20204;-87
2021/12/18 17:13:07;;;;;;;4.03;3.70;;;;;;;;;;4975428;28;20227;-87
2021/12/18 17:15:36;;;;;;;2.78;2.58;;;;;;;;;;4975507;28;20295;-87
2021/12/18 17:18:05;;;;;;;2.90;2.70;;;;;;;;;;4975437;28;20204;-87
2021/12/18 17:20:32;;;;;;;2.72;2.53;;;;;;;;;;4975219;28;20212;-86
2021/12/18 17:23:00;;;;;;;2.53;2.33;;;;;;;;;;4975171;28;20207;-88
2021/12/18 17:25:27;;;;;;;2.50;2.30;;;;;;;;;;4975075;28;20207;-87
2021/12/18 17:27:55;;;;;;;2.67;2.47;;;;;;;;;;4975347;28;20228;-88
2021/12/18 17:30:23;;;;;;;2.60;2.40;;;;;;;;;;4974693;28;20211;-88
2021/12/18 17:32:53;;;;;;;2.95;2.75;;;;;;;;;;4975175;28;20212;-87
2021/12/18 17:35:21;;;;;;;3.42;3.15;;;;;;;;;;4974854;28;20243;-87
2021/12/18 17:37:48;;;;;;;2.67;2.47;;;;;;;;;;4974143;28;20208;-87
2021/12/18 17:40:20;;;;;;;2.10;2.00;;;;;;;;;;4974874;28;20200;-86
2021/12/18 17:42:49;;;;;;;1.98;1.88;;;;;;;;;;4974888;28;20313;-87
2021/12/18 17:45:17;;;;;;;1.85;1.75;;;;;;;;;;4985163;28;20224;-86
2021/12/18 17:47:44;;;;;;;2.60;2.40;;;;;;;;;;4993482;28;20318;-87